Aviation Digital Data Service (ADDS)

Output produced by METARs form (2034 UTC 25 October 2014)
found at http://aviationweather.gov/adds/metars/
 
KDAG 251950Z AUTO 24018G22KT 10SM CLR 31/05 A3001 RMK AO2 SLP138 T03060050
KDAG 251730Z 2518/2618 28008KT P6SM FEW250 
     FM252000 25015G25KT P6SM SCT250 
     FM260400 27010KT P6SM SCT250
       
KEDW 251958Z 23017G24KT 70SM FEW080 FEW210 BKN280 27/03 A3004 RMK AO2A PK WND 25029/14 SLP156 T02740033
TAF KEDW 2502/2608 25012KT 9999 SKC QNH2997INS 
     BECMG 2503/2504 VRB06KT 9999 SKC QNH3002INS 
     BECMG 2517/2518 24012G18KT 9999 FEW300 QNH3000INS 
     TEMPO 2518/2521 24015G25KT 510009 
     BECMG 2520/2521 25020G30KT 9999 SKC 520009 QNH3000INS 
     BECMG 2600/2601 25012G18KT 9999 SKC QNH2998INS 
     BECMG 2602/2603 24009KT 9999 SKC QNH3002INS TX27/2522Z TN08/2513Z LAST NO AMDS AFT 2505 NEXT 2710
       
KVCV 252015Z AUTO 33004KT 10SM SCT085 27/04 A3007 RMK AO2
KONT 251953Z 24011KT 10SM FEW090 SCT200 29/03 A3003 RMK AO2 SLP154 T02890033
KONT 251721Z 2518/2624 VRB05KT P6SM SCT100 
     FM252000 25012KT P6SM SCT100 
     FM260400 VRB04KT P6SM FEW100 
     FM260900 VRB04KT 5SM BR HZ BKN010 
     FM261600 VRB05KT P6SM SCT015 
     FM262000 26010KT P6SM SCT200
       
KSNA 251953Z 23007KT 10SM FEW011 SCT100 SCT250 26/14 A3004 RMK AO2 SLP170 T02560139
KSNA 251721Z 2518/2618 23010KT P6SM SCT100 
     FM260300 VRB05KT P6SM SCT015 
     FM260700 VRB05KT P6SM OVC015
       
KSAN 251951Z 25008KT 9SM FEW015 SCT100 25/15 A3004 RMK AO2 SLP173 T02500150 $
KSAN 251721Z 2518/2624 30005KT P6SM SCT012 BKN100 
     FM252000 29010KT P6SM SCT015 SCT070 
     FM260200 VRB04KT P6SM SCT015 
     FM260500 VRB03KT P6SM BKN015 
     FM260900 VRB04KT P6SM OVC018 
     FM261900 28010KT P6SM SCT025
       
KNID 251956Z AUTO 20019G28KT 10SM CLR 29/M01 A3000 RMK AO2 PK WND 19031/1900 SLP140 T02941011 $
KNXP 251956Z 14011KT 10SM FEW080 SCT120 29/07 A3008 RMK AO2 SLP153 T02940067
TAF KNXP 2515/2615 VRB05KT 9999 SKC QNH3009INS 
     BECMG 2518/2520 23012KT 9999 SKC QNH3000INS 
     TEMPO 2520/2602 24017G25KT AUTOMATED SENSOR METWATCH 2515 TIL 2715 T32/2523Z T14/2613Z
       
KPSP 251953Z 09007KT 10SM CLR 33/08 A2995 RMK AO2 SLP139 T03330083
KPSP 251721Z 2518/2618 VRB06KT P6SM SCT100 
     FM252300 32012G20KT P6SM SCT100 
     FM260700 VRB06KT P6SM SCT200
       
KLAX 252030Z 27011KT 10SM FEW080 SCT100 BKN180 23/13 A3003 RMK AO2 TEST MESSAGE 4 $
KLAX 251741Z 2518/2624 25005KT P6SM SCT100 SCT200 
     FM252100 26013KT P6SM SCT100 BKN200 
     FM260300 26008KT P6SM SCT150 
     FM260900 30004KT P6SM SCT015 
     TEMPO 2610/2614 P6SM BKN015 
     FM261600 28004KT 5SM HZ OVC020 
     FM262100 26010KT P6SM SCT250
       
KCNO 251953Z 24009KT 10SM SCT120 30/03 A3003 RMK AO2 SLP164 T03000033
KSMO 251951Z 22008KT 10SM BKN090 24/12 A3005 RMK AO2 SLP173 T02390117 $
KLGB 251953Z 28007KT 10SM FEW090 26/15 A3003 RMK AO2 SLP170 T02610150
KLGB 251741Z 2518/2618 VRB03KT P6SM SCT100 
     FM252000 25007KT P6SM BKN150 
     FM252300 30012KT P6SM BKN150 
     FM260500 29005KT P6SM SCT150 
     FM260800 VRB03KT P6SM BKN015 
     FM261600 31003KT 5SM HZ OVC025
       
KVNY 251951Z 10006KT 10SM SCT090 27/05 A3004 RMK AO2 SLP164 T02720050
KVNY 251741Z 2518/2618 VRB03KT P6SM BKN090 
     FM252000 16007KT P6SM BKN100 
     FM260200 VRB04KT P6SM SCT120 
     FM261000 VRB03KT P6SM BKN008 
     FM261400 VRB03KT P6SM BKN012
       
KBUR 251953Z VRB04KT 10SM OVC090 26/03 A3005 RMK AO2 SLP162 T02610028
KBUR 251741Z 2518/2618 VRB05KT P6SM SCT090 
     FM252000 18010KT P6SM BKN100 
     FM260200 16004KT P6SM SCT150 
     FM261000 VRB03KT P6SM BKN008 
     FM261400 VRB03KT 6SM HZ BKN012
       
KBFL 251954Z 31009KT 10SM CLR 24/08 A3006 RMK AO2 SLP173 T02390083
KBFL 251720Z 2518/2618 32012KT P6SM SCT100 BKN250 
     FM260300 34006KT P6SM SCT050 BKN250 
     FM260700 VRB04KT P6SM OVC025
       
KPMD 251953Z 24017G26KT 10SM FEW075 27/05 A3008 RMK AO2 PK WND 22026/1944 SLP160 T02670050
KPMD 251741Z 2518/2618 VRB05KT P6SM FEW080 
     FM252000 25012G23KT P6SM BKN150 
     FM260300 25012KT P6SM SCT150 
     FM261000 VRB05KT P6SM SCT150 
     FM261500 28013KT P6SM SKC
       
KOXR 251951Z 26012KT 10SM CLR 23/15 A3005 RMK AO2 SLP175 T02280150
KOXR 251741Z 2518/2618 29006KT P6SM FEW100 
     FM252100 26013KT P6SM BKN100 
     FM260300 30005KT P6SM SCT120 
     FM260800 VRB03KT P6SM SCT150 
     FM261400 04004KT 4SM HZ SKC 
     FM261700 32005KT 6SM HZ SKC
       
KWJF 251956Z 23013G21KT 10SM SCT075 26/02 A3008 RMK AO2 SLP173 T02610022
KWJF 251741Z 2518/2618 VRB05KT P6SM FEW080 
     FM252100 24012G20KT P6SM BKN100 
     FM260300 25012KT P6SM SCT150 
     FM260600 26010KT P6SM SCT150 
     FM261200 26012G23KT P6SM SKC
       
KCMA 251955Z 24006KT 10SM CLR 25/11 A3004 RMK AO2 SLP180 T02500106
KFAT 251953Z 21010KT 10SM FEW065 SCT250 27/06 A3005 RMK AO2 SLP173 T02670061
KFAT 251720Z 2518/2618 15008KT P6SM SCT080 BKN100 
     FM252300 31010KT P6SM SCT250 
     FM261300 VRB04KT P6SM SCT030 BKN050
       
KEED 251956Z AUTO 07004KT 10SM FEW100 33/07 A2997 RMK AO2 SLP118 T03280067
KEED 251730Z 2518/2618 VRB05KT P6SM SCT110 
     FM252000 20011KT P6SM SCT110 
     FM260200 25010KT P6SM SCT110
       
KLSV 251958Z AUTO 20016KT 10SM CLR 29/06 A2999 RMK AO2 SLP137 T02940059 $
TAF KLSV 2517/2623 08009KT 9999 FEW150 QNH2999INS 
     BECMG 2519/2520 20012G18KT 9999 FEW150 QNH2992INS 
     BECMG 2604/2605 13009KT 9999 SCT100 QNH2987INS TX29/2523Z TN13/2612Z
       
KLAS 251956Z 18013G19KT 10SM FEW100 FEW180 SCT250 29/04 A2998 RMK AO2 SLP130 T02890044
KLAS 251730Z 2518/2618 16010G18KT P6SM FEW100 
     FM252000 20015G25KT P6SM SCT100 
     FM260300 21010KT P6SM SCT100
       
KHII 252015Z AUTO 26003KT 10SM CLR 33/06 A2996 RMK AO2
KIFP 252015Z AUTO 21008KT 10SM CLR 33/06 A2996 RMK AO2 PWINO